sensor_id;sensor_type;location;lat;lon;timestamp;P1;durP1;ratioP1;P2;durP2;ratioP2
68806;SDS011;55800;54.272;18.558;2023-04-06T00:01:53;33.03;;;19.30;;
68806;SDS011;55800;54.272;18.558;2023-04-06T00:04:23;32.67;;;20.85;;
68806;SDS011;55800;54.272;18.558;2023-04-06T00:06:53;33.63;;;20.52;;
68806;SDS011;55800;54.272;18.558;2023-04-06T00:11:52;34.90;;;19.17;;
68806;SDS011;55800;54.272;18.558;2023-04-06T00:14:22;43.42;;;20.83;;
68806;SDS011;55800;54.272;18.558;2023-04-06T00:16:51;38.70;;;20.63;;
68806;SDS011;55800;54.272;18.558;2023-04-06T00:19:21;31.45;;;18.27;;
68806;SDS011;55800;54.272;18.558;2023-04-06T00:21:52;38.63;;;21.65;;
68806;SDS011;55800;54.272;18.558;2023-04-06T00:24:22;41.60;;;21.27;;
68806;SDS011;55800;54.272;18.558;2023-04-06T00:26:52;31.85;;;21.48;;
68806;SDS011;55800;54.272;18.558;2023-04-06T00:29:22;42.80;;;21.90;;
68806;SDS011;55800;54.272;18.558;2023-04-06T00:31:51;35.50;;;20.88;;
68806;SDS011;55800;54.272;18.558;2023-04-06T00:34:21;40.47;;;21.23;;
68806;SDS011;55800;54.272;18.558;2023-04-06T00:36:52;36.70;;;21.10;;
68806;SDS011;55800;54.272;18.558;2023-04-06T00:39:21;31.52;;;19.77;;
68806;SDS011;55800;54.272;18.558;2023-04-06T00:41:51;38.38;;;20.85;;
68806;SDS011;55800;54.272;18.558;2023-04-06T00:44:22;36.33;;;18.88;;
68806;SDS011;55800;54.272;18.558;2023-04-06T00:46:52;40.95;;;20.80;;
68806;SDS011;55800;54.272;18.558;2023-04-06T00:49:23;38.67;;;18.92;;
68806;SDS011;55800;54.272;18.558;2023-04-06T00:51:53;33.10;;;18.50;;
68806;SDS011;55800;54.272;18.558;2023-04-06T00:54:26;38.45;;;20.40;;
68806;SDS011;55800;54.272;18.558;2023-04-06T00:56:57;39.50;;;19.73;;
68806;SDS011;55800;54.272;18.558;2023-04-06T00:59:29;31.90;;;18.45;;
68806;SDS011;55800;54.272;18.558;2023-04-06T01:02:01;33.88;;;19.73;;
68806;SDS011;55800;54.272;18.558;2023-04-06T01:04:38;34.42;;;19.63;;
68806;SDS011;55800;54.272;18.558;2023-04-06T01:07:15;37.00;;;20.25;;
68806;SDS011;55800;54.272;18.558;2023-04-06T01:09:58;41.80;;;20.98;;
68806;SDS011;55800;54.272;18.558;2023-04-06T01:12:31;43.47;;;20.35;;
68806;SDS011;55800;54.272;18.558;2023-04-06T01:15:05;36.60;;;19.90;;
68806;SDS011;55800;54.272;18.558;2023-04-06T01:17:40;40.70;;;19.75;;
68806;SDS011;55800;54.272;18.558;2023-04-06T01:20:16;33.03;;;20.13;;
68806;SDS011;55800;54.272;18.558;2023-04-06T01:22:47;36.20;;;19.88;;
68806;SDS011;55800;54.272;18.558;2023-04-06T01:25:18;37.38;;;19.88;;
68806;SDS011;55800;54.272;18.558;2023-04-06T01:28:00;33.40;;;18.75;;
68806;SDS011;55800;54.272;18.558;2023-04-06T01:30:48;28.58;;;18.42;;
68806;SDS011;55800;54.272;18.558;2023-04-06T01:33:36;38.95;;;21.02;;
68806;SDS011;55800;54.272;18.558;2023-04-06T01:36:11;31.95;;;18.98;;
68806;SDS011;55800;54.272;18.558;2023-04-06T01:38:43;30.95;;;18.55;;
68806;SDS011;55800;54.272;18.558;2023-04-06T01:41:15;28.80;;;18.23;;
68806;SDS011;55800;54.272;18.558;2023-04-06T01:43:49;33.35;;;18.38;;
68806;SDS011;55800;54.272;18.558;2023-04-06T01:46:25;33.00;;;17.85;;
68806;SDS011;55800;54.272;18.558;2023-04-06T01:48:55;34.45;;;18.27;;
68806;SDS011;55800;54.272;18.558;2023-04-06T01:51:34;32.40;;;18.65;;
68806;SDS011;55800;54.272;18.558;2023-04-06T01:54:07;31.48;;;17.17;;
68806;SDS011;55800;54.272;18.558;2023-04-06T01:57:03;28.58;;;16.02;;
68806;SDS011;55800;54.272;18.558;2023-04-06T01:59:40;38.88;;;17.42;;
68806;SDS011;55800;54.272;18.558;2023-04-06T02:02:18;33.30;;;17.75;;
68806;SDS011;55800;54.272;18.558;2023-04-06T02:04:57;31.15;;;16.60;;
68806;SDS011;55800;54.272;18.558;2023-04-06T02:07:27;29.55;;;15.68;;
68806;SDS011;55800;54.272;18.558;2023-04-06T02:09:58;39.92;;;18.55;;
68806;SDS011;55800;54.272;18.558;2023-04-06T02:12:35;30.80;;;15.98;;
68806;SDS011;55800;54.272;18.558;2023-04-06T02:15:08;32.17;;;17.38;;
68806;SDS011;55800;54.272;18.558;2023-04-06T02:17:40;33.65;;;15.70;;
68806;SDS011;55800;54.272;18.558;2023-04-06T02:20:10;25.98;;;14.88;;
68806;SDS011;55800;54.272;18.558;2023-04-06T02:22:40;27.27;;;16.27;;
68806;SDS011;55800;54.272;18.558;2023-04-06T02:25:10;27.77;;;14.65;;
68806;SDS011;55800;54.272;18.558;2023-04-06T02:27:40;30.08;;;15.77;;
68806;SDS011;55800;54.272;18.558;2023-04-06T03:05:04;20.55;;;12.70;;
68806;SDS011;55800;54.272;18.558;2023-04-06T03:07:38;28.05;;;13.23;;
68806;SDS011;55800;54.272;18.558;2023-04-06T03:10:13;21.23;;;13.00;;
68806;SDS011;55800;54.272;18.558;2023-04-06T03:12:44;27.98;;;13.45;;
68806;SDS011;55800;54.272;18.558;2023-04-06T03:15:14;22.38;;;11.73;;
68806;SDS011;55800;54.272;18.558;2023-04-06T03:17:49;20.50;;;13.05;;
68806;SDS011;55800;54.272;18.558;2023-04-06T03:20:33;17.30;;;10.75;;
68806;SDS011;55800;54.272;18.558;2023-04-06T03:23:02;24.33;;;11.50;;
68806;SDS011;55800;54.272;18.558;2023-04-06T03:25:37;21.75;;;12.02;;
68806;SDS011;55800;54.272;18.558;2023-04-06T03:28:09;23.42;;;11.85;;
68806;SDS011;55800;54.272;18.558;2023-04-06T03:30:48;20.70;;;10.73;;
68806;SDS011;55800;54.272;18.558;2023-04-06T03:33:28;17.33;;;11.33;;
68806;SDS011;55800;54.272;18.558;2023-04-06T03:35:59;17.38;;;11.07;;
68806;SDS011;55800;54.272;18.558;2023-04-06T03:38:30;19.88;;;10.90;;
68806;SDS011;55800;54.272;18.558;2023-04-06T03:41:03;22.93;;;11.90;;
68806;SDS011;55800;54.272;18.558;2023-04-06T03:43:32;22.15;;;10.48;;
68806;SDS011;55800;54.272;18.558;2023-04-06T03:46:02;22.23;;;12.15;;
68806;SDS011;55800;54.272;18.558;2023-04-06T03:48:32;18.38;;;12.15;;
68806;SDS011;55800;54.272;18.558;2023-04-06T03:51:05;19.75;;;11.27;;
68806;SDS011;55800;54.272;18.558;2023-04-06T03:53:35;18.38;;;12.30;;
68806;SDS011;55800;54.272;18.558;2023-04-06T03:56:05;20.83;;;12.63;;
68806;SDS011;55800;54.272;18.558;2023-04-06T04:01:03;17.90;;;11.40;;
68806;SDS011;55800;54.272;18.558;2023-04-06T04:03:34;20.55;;;11.27;;
68806;SDS011;55800;54.272;18.558;2023-04-06T04:06:06;19.25;;;10.35;;
68806;SDS011;55800;54.272;18.558;2023-04-06T04:08:36;19.67;;;11.40;;
68806;SDS011;55800;54.272;18.558;2023-04-06T04:11:07;18.73;;;10.30;;
68806;SDS011;55800;54.272;18.558;2023-04-06T04:13:37;20.57;;;10.33;;
68806;SDS011;55800;54.272;18.558;2023-04-06T04:16:08;16.17;;;10.17;;
68806;SDS011;55800;54.272;18.558;2023-04-06T04:21:08;14.57;;;8.17;;
68806;SDS011;55800;54.272;18.558;2023-04-06T04:23:38;16.13;;;10.77;;
68806;SDS011;55800;54.272;18.558;2023-04-06T04:26:07;15.23;;;11.30;;
68806;SDS011;55800;54.272;18.558;2023-04-06T04:28:37;27.40;;;11.27;;
68806;SDS011;55800;54.272;18.558;2023-04-06T04:31:07;22.38;;;13.00;;
68806;SDS011;55800;54.272;18.558;2023-04-06T04:33:38;24.93;;;13.00;;
68806;SDS011;55800;54.272;18.558;2023-04-06T04:36:15;21.17;;;14.20;;
68806;SDS011;55800;54.272;18.558;2023-04-06T04:38:46;22.57;;;12.90;;
68806;SDS011;55800;54.272;18.558;2023-04-06T04:43:47;21.63;;;13.20;;
68806;SDS011;55800;54.272;18.558;2023-04-06T04:46:21;23.23;;;11.87;;
68806;SDS011;55800;54.272;18.558;2023-04-06T04:48:52;20.13;;;12.13;;
68806;SDS011;55800;54.272;18.558;2023-04-06T04:51:23;22.58;;;13.40;;
68806;SDS011;55800;54.272;18.558;2023-04-06T04:54:04;20.30;;;11.50;;
68806;SDS011;55800;54.272;18.558;2023-04-06T04:56:33;21.77;;;13.10;;
68806;SDS011;55800;54.272;18.558;2023-04-06T04:59:16;26.67;;;13.37;;
68806;SDS011;55800;54.272;18.558;2023-04-06T05:01:53;25.37;;;12.20;;
68806;SDS011;55800;54.272;18.558;2023-04-06T05:04:31;26.63;;;12.33;;
68806;SDS011;55800;54.272;18.558;2023-04-06T05:07:05;23.20;;;12.13;;
68806;SDS011;55800;54.272;18.558;2023-04-06T05:09:38;28.20;;;13.45;;
68806;SDS011;55800;54.272;18.558;2023-04-06T05:12:09;22.87;;;11.53;;
68806;SDS011;55800;54.272;18.558;2023-04-06T05:14:49;25.77;;;13.57;;
68806;SDS011;55800;54.272;18.558;2023-04-06T05:17:20;28.60;;;13.77;;
68806;SDS011;55800;54.272;18.558;2023-04-06T05:19:50;25.70;;;12.80;;
68806;SDS011;55800;54.272;18.558;2023-04-06T05:22:24;24.52;;;14.30;;
68806;SDS011;55800;54.272;18.558;2023-04-06T05:25:01;23.25;;;13.18;;
68806;SDS011;55800;54.272;18.558;2023-04-06T05:27:32;35.10;;;15.57;;
68806;SDS011;55800;54.272;18.558;2023-04-06T05:30:07;24.75;;;15.00;;
68806;SDS011;55800;54.272;18.558;2023-04-06T05:32:43;26.17;;;13.32;;
68806;SDS011;55800;54.272;18.558;2023-04-06T05:35:14;27.35;;;13.77;;
68806;SDS011;55800;54.272;18.558;2023-04-06T05:37:48;26.90;;;16.35;;
68806;SDS011;55800;54.272;18.558;2023-04-06T05:40:22;30.83;;;14.98;;
68806;SDS011;55800;54.272;18.558;2023-04-06T05:45:22;32.95;;;15.18;;
68806;SDS011;55800;54.272;18.558;2023-04-06T05:47:55;30.45;;;13.90;;
68806;SDS011;55800;54.272;18.558;2023-04-06T05:50:28;31.13;;;15.80;;
68806;SDS011;55800;54.272;18.558;2023-04-06T05:52:59;29.88;;;16.00;;
68806;SDS011;55800;54.272;18.558;2023-04-06T05:55:35;31.35;;;16.55;;
68806;SDS011;55800;54.272;18.558;2023-04-06T05:58:15;29.38;;;16.40;;
68806;SDS011;55800;54.272;18.558;2023-04-06T06:00:47;27.98;;;15.68;;
68806;SDS011;55800;54.272;18.558;2023-04-06T06:03:18;30.40;;;14.90;;
68806;SDS011;55800;54.272;18.558;2023-04-06T06:05:53;28.63;;;14.40;;
68806;SDS011;55800;54.272;18.558;2023-04-06T06:08:35;30.00;;;17.08;;
68806;SDS011;55800;54.272;18.558;2023-04-06T06:11:11;31.67;;;15.65;;
68806;SDS011;55800;54.272;18.558;2023-04-06T06:13:40;25.90;;;12.70;;
68806;SDS011;55800;54.272;18.558;2023-04-06T06:16:10;25.00;;;13.60;;
68806;SDS011;55800;54.272;18.558;2023-04-06T06:18:44;27.75;;;14.63;;
68806;SDS011;55800;54.272;18.558;2023-04-06T06:23:46;23.63;;;13.73;;
68806;SDS011;55800;54.272;18.558;2023-04-06T06:26:19;32.85;;;14.73;;
68806;SDS011;55800;54.272;18.558;2023-04-06T06:28:49;23.00;;;13.95;;
68806;SDS011;55800;54.272;18.558;2023-04-06T06:33:49;19.23;;;13.73;;
68806;SDS011;55800;54.272;18.558;2023-04-06T06:36:20;22.02;;;12.38;;
68806;SDS011;55800;54.272;18.558;2023-04-06T06:38:51;22.65;;;13.07;;
68806;SDS011;55800;54.272;18.558;2023-04-06T06:41:22;27.48;;;14.27;;
68806;SDS011;55800;54.272;18.558;2023-04-06T06:43:52;27.70;;;14.80;;
68806;SDS011;55800;54.272;18.558;2023-04-06T06:46:22;17.63;;;9.02;;
68806;SDS011;55800;54.272;18.558;2023-04-06T06:48:51;12.77;;;7.78;;
68806;SDS011;55800;54.272;18.558;2023-04-06T06:51:21;16.42;;;7.97;;
68806;SDS011;55800;54.272;18.558;2023-04-06T06:53:53;14.85;;;7.55;;
68806;SDS011;55800;54.272;18.558;2023-04-06T06:56:22;16.45;;;7.30;;
68806;SDS011;55800;54.272;18.558;2023-04-06T06:58:54;14.82;;;7.43;;
68806;SDS011;55800;54.272;18.558;2023-04-06T07:01:24;14.27;;;8.20;;
68806;SDS011;55800;54.272;18.558;2023-04-06T07:03:54;14.60;;;9.35;;
68806;SDS011;55800;54.272;18.558;2023-04-06T07:06:24;13.40;;;7.93;;
68806;SDS011;55800;54.272;18.558;2023-04-06T07:08:55;14.43;;;7.85;;
68806;SDS011;55800;54.272;18.558;2023-04-06T07:11:25;12.25;;;8.70;;
68806;SDS011;55800;54.272;18.558;2023-04-06T07:13:54;13.98;;;8.02;;
68806;SDS011;55800;54.272;18.558;2023-04-06T07:16:24;16.45;;;6.28;;
68806;SDS011;55800;54.272;18.558;2023-04-06T07:21:24;8.30;;;5.35;;
68806;SDS011;55800;54.272;18.558;2023-04-06T07:23:56;9.02;;;5.63;;
68806;SDS011;55800;54.272;18.558;2023-04-06T07:26:26;12.20;;;6.80;;
68806;SDS011;55800;54.272;18.558;2023-04-06T07:28:56;9.23;;;4.80;;
68806;SDS011;55800;54.272;18.558;2023-04-06T07:31:25;10.02;;;6.30;;
68806;SDS011;55800;54.272;18.558;2023-04-06T07:33:55;18.02;;;5.82;;
68806;SDS011;55800;54.272;18.558;2023-04-06T07:36:24;13.52;;;5.85;;
68806;SDS011;55800;54.272;18.558;2023-04-06T07:38:59;12.18;;;7.07;;
68806;SDS011;55800;54.272;18.558;2023-04-06T07:41:30;8.55;;;5.38;;
68806;SDS011;55800;54.272;18.558;2023-04-06T07:44:00;16.77;;;6.82;;
68806;SDS011;55800;54.272;18.558;2023-04-06T07:46:30;11.38;;;6.43;;
68806;SDS011;55800;54.272;18.558;2023-04-06T07:49:00;10.35;;;6.03;;
68806;SDS011;55800;54.272;18.558;2023-04-06T07:51:32;10.38;;;5.90;;
68806;SDS011;55800;54.272;18.558;2023-04-06T07:54:06;8.60;;;5.32;;
68806;SDS011;55800;54.272;18.558;2023-04-06T07:56:36;11.52;;;6.63;;
68806;SDS011;55800;54.272;18.558;2023-04-06T07:59:05;12.32;;;6.45;;
68806;SDS011;55800;54.272;18.558;2023-04-06T08:01:35;11.95;;;6.78;;
68806;SDS011;55800;54.272;18.558;2023-04-06T08:04:04;11.63;;;5.90;;
68806;SDS011;55800;54.272;18.558;2023-04-06T08:06:34;13.68;;;8.13;;
68806;SDS011;55800;54.272;18.558;2023-04-06T08:09:04;16.05;;;7.15;;
68806;SDS011;55800;54.272;18.558;2023-04-06T08:11:35;9.65;;;6.43;;
68806;SDS011;55800;54.272;18.558;2023-04-06T08:14:04;13.90;;;6.82;;
68806;SDS011;55800;54.272;18.558;2023-04-06T08:16:35;16.08;;;9.77;;
68806;SDS011;55800;54.272;18.558;2023-04-06T08:19:04;25.92;;;9.93;;
68806;SDS011;55800;54.272;18.558;2023-04-06T08:21:38;20.60;;;9.85;;
68806;SDS011;55800;54.272;18.558;2023-04-06T08:24:12;18.25;;;8.50;;
68806;SDS011;55800;54.272;18.558;2023-04-06T08:26:41;25.42;;;10.88;;
68806;SDS011;55800;54.272;18.558;2023-04-06T08:29:11;19.65;;;9.90;;
68806;SDS011;55800;54.272;18.558;2023-04-06T08:31:40;15.35;;;9.18;;
68806;SDS011;55800;54.272;18.558;2023-04-06T08:34:11;18.73;;;9.80;;
68806;SDS011;55800;54.272;18.558;2023-04-06T08:36:41;26.30;;;9.88;;
68806;SDS011;55800;54.272;18.558;2023-04-06T08:39:13;16.27;;;10.15;;
68806;SDS011;55800;54.272;18.558;2023-04-06T08:41:43;20.17;;;10.52;;
68806;SDS011;55800;54.272;18.558;2023-04-06T08:44:12;15.50;;;8.40;;
68806;SDS011;55800;54.272;18.558;2023-04-06T08:46:42;14.70;;;8.02;;
68806;SDS011;55800;54.272;18.558;2023-04-06T08:49:12;20.20;;;7.53;;
68806;SDS011;55800;54.272;18.558;2023-04-06T08:51:44;14.90;;;8.18;;
68806;SDS011;55800;54.272;18.558;2023-04-06T08:54:15;12.02;;;8.85;;
68806;SDS011;55800;54.272;18.558;2023-04-06T08:56:45;14.30;;;8.02;;
68806;SDS011;55800;54.272;18.558;2023-04-06T08:59:15;13.23;;;7.65;;
68806;SDS011;55800;54.272;18.558;2023-04-06T09:01:45;17.88;;;7.07;;
68806;SDS011;55800;54.272;18.558;2023-04-06T09:04:15;10.95;;;6.05;;
68806;SDS011;55800;54.272;18.558;2023-04-06T09:06:46;11.30;;;6.45;;
68806;SDS011;55800;54.272;18.558;2023-04-06T09:09:18;14.40;;;6.43;;
68806;SDS011;55800;54.272;18.558;2023-04-06T09:11:51;11.05;;;6.22;;
68806;SDS011;55800;54.272;18.558;2023-04-06T09:17:01;6.90;;;4.85;;
68806;SDS011;55800;54.272;18.558;2023-04-06T09:22:02;6.07;;;3.65;;
68806;SDS011;55800;54.272;18.558;2023-04-06T09:24:43;7.05;;;5.03;;
68806;SDS011;55800;54.272;18.558;2023-04-06T09:27:14;9.05;;;4.93;;
68806;SDS011;55800;54.272;18.558;2023-04-06T09:29:44;13.48;;;5.10;;
68806;SDS011;55800;54.272;18.558;2023-04-06T09:32:13;9.50;;;5.20;;
68806;SDS011;55800;54.272;18.558;2023-04-06T09:34:44;8.38;;;5.47;;
68806;SDS011;55800;54.272;18.558;2023-04-06T09:37:17;10.93;;;4.75;;
68806;SDS011;55800;54.272;18.558;2023-04-06T09:39:49;7.25;;;4.63;;
68806;SDS011;55800;54.272;18.558;2023-04-06T09:42:25;7.22;;;4.78;;
68806;SDS011;55800;54.272;18.558;2023-04-06T09:44:54;8.20;;;5.00;;
68806;SDS011;55800;54.272;18.558;2023-04-06T09:47:24;10.23;;;4.75;;
68806;SDS011;55800;54.272;18.558;2023-04-06T09:49:56;9.40;;;4.70;;
68806;SDS011;55800;54.272;18.558;2023-04-06T09:52:30;12.88;;;4.45;;
68806;SDS011;55800;54.272;18.558;2023-04-06T09:55:03;10.27;;;5.63;;
68806;SDS011;55800;54.272;18.558;2023-04-06T09:57:37;9.07;;;5.03;;
68806;SDS011;55800;54.272;18.558;2023-04-06T10:00:13;9.32;;;4.43;;
68806;SDS011;55800;54.272;18.558;2023-04-06T10:02:50;8.50;;;5.55;;
68806;SDS011;55800;54.272;18.558;2023-04-06T10:05:27;7.25;;;4.95;;
68806;SDS011;55800;54.272;18.558;2023-04-06T10:08:04;10.13;;;5.18;;
68806;SDS011;55800;54.272;18.558;2023-04-06T10:10:38;9.82;;;4.40;;
68806;SDS011;55800;54.272;18.558;2023-04-06T10:13:09;10.38;;;5.38;;
68806;SDS011;55800;54.272;18.558;2023-04-06T10:15:39;9.45;;;5.55;;
68806;SDS011;55800;54.272;18.558;2023-04-06T10:18:10;8.07;;;4.65;;
68806;SDS011;55800;54.272;18.558;2023-04-06T10:20:41;7.20;;;4.80;;
68806;SDS011;55800;54.272;18.558;2023-04-06T10:23:19;9.80;;;4.93;;
68806;SDS011;55800;54.272;18.558;2023-04-06T10:25:53;17.65;;;5.55;;
68806;SDS011;55800;54.272;18.558;2023-04-06T10:28:24;12.10;;;5.55;;
68806;SDS011;55800;54.272;18.558;2023-04-06T10:30:58;9.52;;;5.20;;
68806;SDS011;55800;54.272;18.558;2023-04-06T10:33:29;9.95;;;4.25;;
68806;SDS011;55800;54.272;18.558;2023-04-06T10:36:08;8.15;;;4.50;;
68806;SDS011;55800;54.272;18.558;2023-04-06T10:38:39;7.40;;;4.60;;
68806;SDS011;55800;54.272;18.558;2023-04-06T10:41:11;12.82;;;5.45;;
68806;SDS011;55800;54.272;18.558;2023-04-06T10:43:41;9.85;;;4.10;;
68806;SDS011;55800;54.272;18.558;2023-04-06T10:46:13;6.85;;;4.47;;
68806;SDS011;55800;54.272;18.558;2023-04-06T10:48:54;10.57;;;5.00;;
68806;SDS011;55800;54.272;18.558;2023-04-06T10:51:27;13.98;;;4.28;;
68806;SDS011;55800;54.272;18.558;2023-04-06T10:53:58;12.38;;;4.85;;
68806;SDS011;55800;54.272;18.558;2023-04-06T10:56:30;8.82;;;5.60;;
68806;SDS011;55800;54.272;18.558;2023-04-06T10:59:06;12.25;;;4.00;;
68806;SDS011;55800;54.272;18.558;2023-04-06T11:04:05;12.32;;;4.72;;
68806;SDS011;55800;54.272;18.558;2023-04-06T11:06:38;8.00;;;4.32;;
68806;SDS011;55800;54.272;18.558;2023-04-06T11:09:07;9.27;;;4.47;;
68806;SDS011;55800;54.272;18.558;2023-04-06T11:11:38;8.10;;;3.30;;
68806;SDS011;55800;54.272;18.558;2023-04-06T11:14:09;8.52;;;3.92;;
68806;SDS011;55800;54.272;18.558;2023-04-06T11:16:38;6.97;;;3.65;;
68806;SDS011;55800;54.272;18.558;2023-04-06T11:19:08;9.55;;;3.70;;
68806;SDS011;55800;54.272;18.558;2023-04-06T11:21:39;7.43;;;3.38;;
68806;SDS011;55800;54.272;18.558;2023-04-06T11:24:14;9.52;;;3.65;;
68806;SDS011;55800;54.272;18.558;2023-04-06T11:26:46;8.52;;;3.53;;
68806;SDS011;55800;54.272;18.558;2023-04-06T11:29:19;9.93;;;3.78;;
68806;SDS011;55800;54.272;18.558;2023-04-06T11:31:50;10.60;;;4.65;;
68806;SDS011;55800;54.272;18.558;2023-04-06T11:34:21;6.93;;;3.65;;
68806;SDS011;55800;54.272;18.558;2023-04-06T11:36:54;6.70;;;3.50;;
68806;SDS011;55800;54.272;18.558;2023-04-06T11:39:25;5.32;;;2.70;;
68806;SDS011;55800;54.272;18.558;2023-04-06T11:41:58;5.97;;;3.33;;
68806;SDS011;55800;54.272;18.558;2023-04-06T11:44:33;9.05;;;2.90;;
68806;SDS011;55800;54.272;18.558;2023-04-06T11:47:03;6.53;;;2.92;;
68806;SDS011;55800;54.272;18.558;2023-04-06T11:49:41;6.20;;;2.55;;
68806;SDS011;55800;54.272;18.558;2023-04-06T11:52:16;3.70;;;2.60;;
68806;SDS011;55800;54.272;18.558;2023-04-06T11:54:47;5.53;;;2.67;;
68806;SDS011;55800;54.272;18.558;2023-04-06T11:57:20;4.78;;;2.38;;
68806;SDS011;55800;54.272;18.558;2023-04-06T11:59:52;5.85;;;2.47;;
68806;SDS011;55800;54.272;18.558;2023-04-06T12:02:23;6.00;;;2.10;;
68806;SDS011;55800;54.272;18.558;2023-04-06T12:04:53;5.05;;;2.60;;
68806;SDS011;55800;54.272;18.558;2023-04-06T12:07:22;4.15;;;2.63;;
68806;SDS011;55800;54.272;18.558;2023-04-06T12:09:52;7.00;;;3.05;;
68806;SDS011;55800;54.272;18.558;2023-04-06T12:12:22;6.63;;;2.38;;
68806;SDS011;55800;54.272;18.558;2023-04-06T12:14:52;6.43;;;2.70;;
68806;SDS011;55800;54.272;18.558;2023-04-06T12:17:22;5.35;;;2.47;;
68806;SDS011;55800;54.272;18.558;2023-04-06T12:19:51;5.57;;;3.05;;
68806;SDS011;55800;54.272;18.558;2023-04-06T12:22:28;6.55;;;2.63;;
68806;SDS011;55800;54.272;18.558;2023-04-06T12:27:32;4.63;;;2.35;;
68806;SDS011;55800;54.272;18.558;2023-04-06T12:30:02;5.07;;;1.98;;
68806;SDS011;55800;54.272;18.558;2023-04-06T12:32:34;5.53;;;3.20;;
68806;SDS011;55800;54.272;18.558;2023-04-06T12:35:04;5.75;;;2.60;;
68806;SDS011;55800;54.272;18.558;2023-04-06T12:37:36;3.55;;;2.35;;
68806;SDS011;55800;54.272;18.558;2023-04-06T12:40:07;4.80;;;2.10;;
68806;SDS011;55800;54.272;18.558;2023-04-06T12:42:41;6.05;;;2.35;;
68806;SDS011;55800;54.272;18.558;2023-04-06T12:45:12;5.75;;;2.05;;
68806;SDS011;55800;54.272;18.558;2023-04-06T12:47:44;4.15;;;1.75;;
68806;SDS011;55800;54.272;18.558;2023-04-06T12:52:42;5.40;;;2.42;;
68806;SDS011;55800;54.272;18.558;2023-04-06T12:55:12;3.40;;;1.90;;
68806;SDS011;55800;54.272;18.558;2023-04-06T12:57:44;3.20;;;1.63;;
68806;SDS011;55800;54.272;18.558;2023-04-06T13:00:14;4.75;;;1.55;;
68806;SDS011;55800;54.272;18.558;2023-04-06T13:02:45;4.63;;;2.28;;
68806;SDS011;55800;54.272;18.558;2023-04-06T13:07:45;4.13;;;2.80;;
68806;SDS011;55800;54.272;18.558;2023-04-06T13:10:15;2.05;;;1.30;;
68806;SDS011;55800;54.272;18.558;2023-04-06T13:12:46;3.65;;;1.95;;
68806;SDS011;55800;54.272;18.558;2023-04-06T13:15:16;4.95;;;1.98;;
68806;SDS011;55800;54.272;18.558;2023-04-06T13:17:45;4.55;;;1.63;;
68806;SDS011;55800;54.272;18.558;2023-04-06T13:22:44;4.32;;;1.77;;
68806;SDS011;55800;54.272;18.558;2023-04-06T13:25:16;8.32;;;4.20;;
68806;SDS011;55800;54.272;18.558;2023-04-06T13:27:48;4.88;;;2.10;;
68806;SDS011;55800;54.272;18.558;2023-04-06T13:30:18;5.30;;;1.85;;
68806;SDS011;55800;54.272;18.558;2023-04-06T13:32:47;2.22;;;2.00;;
68806;SDS011;55800;54.272;18.558;2023-04-06T13:35:18;2.97;;;1.70;;
68806;SDS011;55800;54.272;18.558;2023-04-06T13:37:48;3.13;;;1.85;;
68806;SDS011;55800;54.272;18.558;2023-04-06T13:40:19;4.15;;;2.30;;
68806;SDS011;55800;54.272;18.558;2023-04-06T13:42:49;6.00;;;2.40;;
68806;SDS011;55800;54.272;18.558;2023-04-06T13:45:19;4.22;;;2.17;;
68806;SDS011;55800;54.272;18.558;2023-04-06T13:47:49;4.20;;;1.67;;
68806;SDS011;55800;54.272;18.558;2023-04-06T13:50:19;1.88;;;1.27;;
68806;SDS011;55800;54.272;18.558;2023-04-06T13:52:48;2.55;;;1.52;;
68806;SDS011;55800;54.272;18.558;2023-04-06T13:57:47;3.67;;;1.90;;
68806;SDS011;55800;54.272;18.558;2023-04-06T14:00:19;2.72;;;1.70;;
68806;SDS011;55800;54.272;18.558;2023-04-06T14:02:49;4.13;;;1.90;;
68806;SDS011;55800;54.272;18.558;2023-04-06T14:05:18;2.10;;;1.52;;
68806;SDS011;55800;54.272;18.558;2023-04-06T14:07:47;4.72;;;1.58;;
68806;SDS011;55800;54.272;18.558;2023-04-06T14:10:17;5.47;;;2.65;;
68806;SDS011;55800;54.272;18.558;2023-04-06T14:12:47;3.58;;;2.53;;
68806;SDS011;55800;54.272;18.558;2023-04-06T14:15:19;3.35;;;2.15;;
68806;SDS011;55800;54.272;18.558;2023-04-06T14:17:50;2.78;;;1.67;;
68806;SDS011;55800;54.272;18.558;2023-04-06T14:20:20;7.13;;;3.42;;
68806;SDS011;55800;54.272;18.558;2023-04-06T14:22:49;6.72;;;2.30;;
68806;SDS011;55800;54.272;18.558;2023-04-06T14:25:21;3.58;;;2.05;;
68806;SDS011;55800;54.272;18.558;2023-04-06T14:27:51;6.32;;;1.73;;
68806;SDS011;55800;54.272;18.558;2023-04-06T14:30:21;2.85;;;1.65;;
68806;SDS011;55800;54.272;18.558;2023-04-06T14:32:50;2.80;;;1.67;;
68806;SDS011;55800;54.272;18.558;2023-04-06T14:37:48;3.70;;;1.70;;
68806;SDS011;55800;54.272;18.558;2023-04-06T14:40:18;2.92;;;1.80;;
68806;SDS011;55800;54.272;18.558;2023-04-06T14:42:47;5.70;;;2.10;;
68806;SDS011;55800;54.272;18.558;2023-04-06T14:45:21;2.42;;;1.73;;
68806;SDS011;55800;54.272;18.558;2023-04-06T14:47:50;2.97;;;2.58;;
68806;SDS011;55800;54.272;18.558;2023-04-06T14:50:21;2.25;;;1.85;;
68806;SDS011;55800;54.272;18.558;2023-04-06T14:52:51;3.20;;;1.63;;
68806;SDS011;55800;54.272;18.558;2023-04-06T14:55:20;5.95;;;1.90;;
68806;SDS011;55800;54.272;18.558;2023-04-06T14:57:50;1.90;;;1.38;;
68806;SDS011;55800;54.272;18.558;2023-04-06T15:00:21;3.97;;;1.80;;
68806;SDS011;55800;54.272;18.558;2023-04-06T15:02:51;4.55;;;2.05;;
68806;SDS011;55800;54.272;18.558;2023-04-06T15:07:49;3.55;;;1.85;;
68806;SDS011;55800;54.272;18.558;2023-04-06T15:10:19;1.65;;;1.45;;
68806;SDS011;55800;54.272;18.558;2023-04-06T15:12:48;2.92;;;2.17;;
68806;SDS011;55800;54.272;18.558;2023-04-06T15:15:18;4.22;;;2.00;;
68806;SDS011;55800;54.272;18.558;2023-04-06T15:17:50;2.90;;;2.40;;
68806;SDS011;55800;54.272;18.558;2023-04-06T15:20:20;3.78;;;2.22;;
68806;SDS011;55800;54.272;18.558;2023-04-06T15:22:49;3.72;;;2.17;;
68806;SDS011;55800;54.272;18.558;2023-04-06T15:25:19;3.47;;;2.40;;
68806;SDS011;55800;54.272;18.558;2023-04-06T15:27:49;4.85;;;2.20;;
68806;SDS011;55800;54.272;18.558;2023-04-06T15:30:18;4.07;;;2.03;;
68806;SDS011;55800;54.272;18.558;2023-04-06T15:32:52;6.15;;;2.65;;
68806;SDS011;55800;54.272;18.558;2023-04-06T15:35:24;7.10;;;3.47;;
68806;SDS011;55800;54.272;18.558;2023-04-06T15:37:54;8.65;;;1.95;;
68806;SDS011;55800;54.272;18.558;2023-04-06T15:40:24;7.13;;;3.85;;
68806;SDS011;55800;54.272;18.558;2023-04-06T15:42:54;5.55;;;2.60;;
68806;SDS011;55800;54.272;18.558;2023-04-06T15:45:24;3.42;;;2.00;;
68806;SDS011;55800;54.272;18.558;2023-04-06T15:47:55;5.05;;;1.95;;
68806;SDS011;55800;54.272;18.558;2023-04-06T15:50:24;5.35;;;2.15;;
68806;SDS011;55800;54.272;18.558;2023-04-06T15:52:55;5.45;;;3.63;;
68806;SDS011;55800;54.272;18.558;2023-04-06T15:57:53;5.80;;;3.30;;
68806;SDS011;55800;54.272;18.558;2023-04-06T16:00:23;3.92;;;2.45;;
68806;SDS011;55800;54.272;18.558;2023-04-06T16:02:55;4.90;;;3.80;;
68806;SDS011;55800;54.272;18.558;2023-04-06T16:05:25;8.63;;;4.40;;
68806;SDS011;55800;54.272;18.558;2023-04-06T16:08:00;5.78;;;3.10;;
68806;SDS011;55800;54.272;18.558;2023-04-06T16:10:30;8.38;;;3.00;;